Portada
METAR-TAF:

METAR-TAF

Aeropuertos :

Aeropuerto Internacional de Recife

Recife, Pernambuco, Brasil

latitud: 08-08S, longitud: 034-55W, altitud: 19 m

Observación

El informe se hizo hace 20 minutos, a las 08:00 UTC
Viento 3 kt del oeste-suroeste
Temperatura 25°C
Humedad 94%
Presión 1012 hPa
Visibilidad 10 km o más
Cielo nuboso a una altura de 2300 ft
Escasas nubes a una altura de 2500 ft, Cumulus congestus.
chaparrones en las proximidades

METAR: SBRF 220800Z 24003KT 9999 VCSH BKN023 FEW025TCU 25/24 Q1012

Hora: 05:20 (08:20 UTC)

Pronóstico

El informe se hizo hace 6 horas y 20 minutos, a las 02:00 UTC
Pronóstico válido del 22 a las 06 UTC al 23 a las 06 UTC
Viento 8 kt del este
Visibilidad: 9000 m
Nubes dispersas a una altura de 2200 ft

TAF: SBRF 220200Z 2206/2306 10008KT 9000 SCT022 TN26/2208Z TX30/2215Z RMK PEA

Observaciones y pronósticos meteorológicos de más de 4000 aeropuertos (mensajes METAR y TAF).

Los puntos amarillos y rojos representan las estaciones disponibles.

Ponga el ratón en el punto deseado para ver el nombre de la estación.

Haga clic para ver las observaciones y los pronósticos meteorológicos.

Para cambiar el mapa : haga clic en los botones verdes con una cruz de color negro para hacer un zoom, en el botón verde con un guión para alejar o en las flechas verdes para mapas adyacentes.


METAR-TAF: